createdAt,value
2019-02-21T00:00:42.293Z,16.07
2019-02-21T00:03:11.191Z,17.73
2019-02-21T00:05:39.820Z,16.67
2019-02-21T00:08:08.482Z,17.67
2019-02-21T00:10:37.164Z,16.10
2019-02-21T00:13:06.395Z,16.13
2019-02-21T00:15:35.289Z,16.13
2019-02-21T00:18:04.203Z,15.20
2019-02-21T00:20:32.840Z,16.93
2019-02-21T00:23:01.774Z,16.83
2019-02-21T00:25:30.889Z,16.67
2019-02-21T00:27:59.774Z,16.60
2019-02-21T00:30:35.194Z,15.63
2019-02-21T00:32:59.265Z,16.43
2019-02-21T00:35:28.226Z,16.17
2019-02-21T00:37:57.111Z,15.70
2019-02-21T00:40:26.071Z,14.77
2019-02-21T00:42:55.259Z,14.53
2019-02-21T00:45:24.657Z,15.53
2019-02-21T00:47:53.596Z,16.00
2019-02-21T00:50:22.235Z,15.37
2019-02-21T00:52:51.364Z,15.50
2019-02-21T00:55:20.250Z,16.20
2019-02-21T00:57:49.147Z,16.40
2019-02-21T01:00:17.970Z,15.80
2019-02-21T01:02:46.609Z,16.83
2019-02-21T01:05:15.524Z,17.10
2019-02-21T01:07:46.983Z,16.47
2019-02-21T01:10:15.007Z,15.90
2019-02-21T01:12:44.172Z,17.47
2019-02-21T01:15:12.894Z,17.27
2019-02-21T01:17:41.803Z,17.00
2019-02-21T01:20:10.768Z,17.17
2019-02-21T01:22:39.479Z,16.77
2019-02-21T01:25:08.471Z,16.73
2019-02-21T01:27:37.119Z,16.57
2019-02-21T01:30:06.064Z,14.03
2019-02-21T01:32:35.023Z,16.97
2019-02-21T01:35:03.727Z,16.47
2019-02-21T01:37:32.417Z,16.70
2019-02-21T01:40:01.388Z,15.83
2019-02-21T01:42:30.267Z,16.13
2019-02-21T01:44:58.960Z,16.33
2019-02-21T01:47:27.853Z,14.73
2019-02-21T01:49:56.508Z,15.57
2019-02-21T01:52:25.368Z,17.17
2019-02-21T01:54:54.041Z,16.03
2019-02-21T01:57:23.137Z,17.10
2019-02-21T01:59:52.015Z,16.47
2019-02-21T02:02:20.643Z,17.20
2019-02-21T02:04:49.531Z,16.20
2019-02-21T02:07:18.395Z,15.47
2019-02-21T02:09:47.442Z,15.20
2019-02-21T02:12:16.090Z,15.73
2019-02-21T02:14:45.249Z,17.13
2019-02-21T02:17:14.389Z,15.70
2019-02-21T02:19:43.276Z,15.53
2019-02-21T02:22:12.467Z,15.60
2019-02-21T02:24:41.350Z,16.87
2019-02-21T02:27:10.113Z,13.97
2019-02-21T02:29:38.988Z,16.97
2019-02-21T02:32:09.678Z,16.73
2019-02-21T02:34:38.249Z,17.03
2019-02-21T02:37:06.861Z,16.93
2019-02-21T02:39:35.566Z,17.90
2019-02-21T02:42:04.278Z,15.17
2019-02-21T02:44:33.167Z,16.53
2019-02-21T02:47:01.835Z,17.00
2019-02-21T02:49:31.093Z,17.07
2019-02-21T02:51:59.754Z,18.90
2019-02-21T02:54:28.909Z,18.37
2019-02-21T02:56:58.100Z,17.60
2019-02-21T02:59:26.979Z,18.50
2019-02-21T03:01:55.882Z,17.23
2019-02-21T03:04:24.613Z,16.37
2019-02-21T03:06:53.481Z,18.63
2019-02-21T03:09:22.357Z,17.57
2019-02-21T03:11:52.057Z,19.30
2019-02-21T03:14:21.110Z,19.07
2019-02-21T03:16:50.011Z,20.80
2019-02-21T03:19:21.974Z,15.57
2019-02-21T03:21:51.104Z,21.87
2019-02-21T03:24:19.951Z,21.37
2019-02-21T03:26:48.820Z,19.77
2019-02-21T03:29:17.711Z,20.53
2019-02-21T03:31:54.385Z,20.57
2019-02-21T03:34:17.569Z,22.13
2019-02-21T03:36:46.473Z,20.90
2019-02-21T03:39:17.844Z,21.00
2019-02-21T03:41:47.213Z,22.23
2019-02-21T03:44:15.846Z,22.53
2019-02-21T03:46:44.458Z,24.00
2019-02-21T03:49:13.869Z,23.97
2019-02-21T03:51:42.774Z,23.90
2019-02-21T03:54:11.461Z,22.10
2019-02-21T03:56:43.204Z,20.60
2019-02-21T03:59:13.642Z,25.60
2019-02-21T04:01:42.224Z,24.07
2019-02-21T04:04:13.974Z,25.10
2019-02-21T04:06:43.142Z,26.90
2019-02-21T04:09:12.189Z,25.93
2019-02-21T04:11:43.884Z,28.57
2019-02-21T04:14:12.856Z,26.30
2019-02-21T04:16:41.836Z,29.50
2019-02-21T04:19:10.450Z,30.57
2019-02-21T04:21:39.649Z,29.13
2019-02-21T04:24:08.731Z,24.60
2019-02-21T04:26:37.615Z,28.50
2019-02-21T04:29:06.584Z,29.43
2019-02-21T04:31:35.772Z,30.40
2019-02-21T04:34:04.649Z,30.23
2019-02-21T04:36:33.546Z,31.47
2019-02-21T04:39:02.194Z,27.87
2019-02-21T04:41:31.055Z,32.27
2019-02-21T04:43:59.983Z,32.73
2019-02-21T04:46:28.882Z,32.43
2019-02-21T04:48:57.766Z,32.43
2019-02-21T04:51:26.750Z,33.20
2019-02-21T04:53:55.670Z,35.40
2019-02-21T04:56:24.549Z,33.03
2019-02-21T04:58:53.720Z,34.43
2019-02-21T05:01:22.897Z,36.77
2019-02-21T05:03:51.601Z,35.90
2019-02-21T05:06:20.288Z,36.70
2019-02-21T05:08:49.240Z,38.17
2019-02-21T05:11:18.599Z,37.20
2019-02-21T05:13:47.549Z,39.70
2019-02-21T05:16:16.182Z,37.90
2019-02-21T05:18:45.126Z,38.23
2019-02-21T05:21:16.826Z,37.83
2019-02-21T05:23:46.902Z,39.53
2019-02-21T05:26:20.097Z,38.47
2019-02-21T05:28:49.190Z,39.57
2019-02-21T05:31:27.520Z,38.67
2019-02-21T05:34:07.682Z,40.30
2019-02-21T05:36:58.393Z,42.70
2019-02-21T05:39:54.333Z,35.80
2019-02-21T05:42:35.964Z,42.40
2019-02-21T05:45:29.582Z,42.70
2019-02-21T05:48:12.223Z,41.63
2019-02-21T05:50:49.410Z,40.73
2019-02-21T05:53:24.948Z,43.67
2019-02-21T05:56:01.629Z,44.97
2019-02-21T05:58:49.750Z,42.77
2019-02-21T06:01:43.743Z,46.17
2019-02-21T06:04:38.185Z,48.97
2019-02-21T06:07:16.721Z,41.00
2019-02-21T06:10:16.395Z,42.87
2019-02-21T06:12:51.479Z,47.87
2019-02-21T06:15:51.578Z,45.83
2019-02-21T06:18:43.601Z,46.93
2019-02-21T06:21:37.380Z,46.20
2019-02-21T06:24:24.070Z,42.70
2019-02-21T06:27:12.172Z,39.93
2019-02-21T06:29:45.259Z,43.00
2019-02-21T06:32:14.735Z,45.33
2019-02-21T06:34:43.596Z,46.40
2019-02-21T06:37:12.883Z,36.73
2019-02-21T06:39:42.353Z,48.33
2019-02-21T06:42:11.477Z,46.47
2019-02-21T06:44:40.362Z,48.47
2019-02-21T06:47:09.523Z,43.43
2019-02-21T06:49:38.676Z,47.90
2019-02-21T06:52:07.640Z,49.83
2019-02-21T06:54:36.607Z,46.70
2019-02-21T06:57:05.566Z,48.83
2019-02-21T06:59:42.182Z,45.87
2019-02-21T07:02:05.260Z,50.13
2019-02-21T07:04:34.207Z,49.40
2019-02-21T07:07:03.527Z,49.57
2019-02-21T07:09:32.729Z,50.03
2019-02-21T07:12:01.728Z,48.80
2019-02-21T07:14:30.423Z,50.20
2019-02-21T07:17:00.466Z,49.03
2019-02-21T07:19:29.392Z,42.17
2019-02-21T07:21:58.346Z,48.97
2019-02-21T07:24:27.228Z,45.63
2019-02-21T07:26:55.887Z,44.70
2019-02-21T07:29:24.558Z,41.87
2019-02-21T07:31:54.031Z,42.27
2019-02-21T07:34:22.849Z,46.63
2019-02-21T07:36:51.858Z,44.80
2019-02-21T07:39:21.411Z,43.17
2019-02-21T07:41:50.909Z,44.20
2019-02-21T07:44:20.044Z,44.63
2019-02-21T07:46:48.662Z,44.07
2019-02-21T07:49:17.297Z,44.27
2019-02-21T07:51:46.698Z,42.40
2019-02-21T07:54:18.510Z,43.43
2019-02-21T07:56:47.501Z,43.67
2019-02-21T07:59:16.241Z,36.07
2019-02-21T08:01:45.384Z,38.53
2019-02-21T08:04:14.860Z,36.80
2019-02-21T08:06:43.801Z,41.77
2019-02-21T08:09:12.831Z,40.60
2019-02-21T08:11:42.204Z,39.80
2019-02-21T08:14:10.863Z,38.67
2019-02-21T08:16:39.766Z,38.93
2019-02-21T08:19:08.669Z,33.03
2019-02-21T08:21:37.521Z,35.27
2019-02-21T08:24:06.316Z,36.37
2019-02-21T08:26:35.258Z,34.07
2019-02-21T08:29:06.170Z,36.53
2019-02-21T08:31:34.618Z,35.10
2019-02-21T08:34:07.437Z,32.60
2019-02-21T08:36:36.584Z,30.40
2019-02-21T08:39:07.161Z,27.27
2019-02-21T08:41:39.019Z,28.43
2019-02-21T08:44:07.666Z,28.70
2019-02-21T08:46:36.657Z,32.57
2019-02-21T08:49:07.642Z,26.13
2019-02-21T08:51:36.604Z,25.43
2019-02-21T08:54:05.777Z,25.97
2019-02-21T08:56:34.984Z,29.97
2019-02-21T08:59:03.940Z,23.80
2019-02-21T09:01:32.640Z,25.37
2019-02-21T09:04:10.468Z,22.83
2019-02-21T09:06:34.661Z,25.63
2019-02-21T09:09:04.264Z,21.50
2019-02-21T09:11:32.970Z,24.30
2019-02-21T09:14:01.882Z,22.90
2019-02-21T09:16:31.012Z,14.27
2019-02-21T09:19:00.223Z,21.47
2019-02-21T09:21:29.155Z,15.47
2019-02-21T09:23:58.143Z,25.33
2019-02-21T09:26:27.020Z,21.43
2019-02-21T09:28:58.514Z,21.97
2019-02-21T09:31:26.446Z,20.87
2019-02-21T09:33:55.176Z,20.17
2019-02-21T09:36:24.039Z,17.97
2019-02-21T09:38:53.086Z,19.07
2019-02-21T09:41:22.280Z,19.93
2019-02-21T09:43:51.458Z,21.00
2019-02-21T09:46:20.579Z,21.80
2019-02-21T09:48:49.489Z,22.10
2019-02-21T09:51:18.466Z,24.03
2019-02-21T09:53:47.325Z,24.63
2019-02-21T09:56:16.215Z,22.80
2019-02-21T09:58:45.999Z,19.90
2019-02-21T10:01:14.765Z,18.73
2019-02-21T10:03:44.371Z,23.40
2019-02-21T10:06:13.146Z,24.90
2019-02-21T10:08:41.776Z,24.93
2019-02-21T10:11:11.539Z,23.57
2019-02-21T10:13:40.275Z,26.47
2019-02-21T10:16:09.155Z,26.43
2019-02-21T10:18:38.717Z,23.30
2019-02-21T10:21:07.343Z,22.23
2019-02-21T10:23:35.960Z,21.73
2019-02-21T10:26:04.671Z,23.37
2019-02-21T10:28:33.289Z,23.80
2019-02-21T10:31:02.373Z,25.73
2019-02-21T10:33:31.513Z,21.83
2019-02-21T10:36:00.595Z,24.50
2019-02-21T10:38:29.353Z,23.47
2019-02-21T10:40:58.276Z,26.07
2019-02-21T10:43:26.859Z,25.80
2019-02-21T10:45:55.736Z,24.30
2019-02-21T10:48:24.690Z,22.77
2019-02-21T10:50:53.389Z,24.20
2019-02-21T10:53:22.034Z,24.17
2019-02-21T10:55:50.828Z,25.30
2019-02-21T10:58:19.715Z,26.03
2019-02-21T11:00:48.418Z,22.43
2019-02-21T11:03:17.543Z,22.93
2019-02-21T11:05:46.544Z,25.47
2019-02-21T11:08:15.501Z,25.30
2019-02-21T11:10:44.491Z,23.73
2019-02-21T11:13:13.378Z,26.60
2019-02-21T11:15:42.485Z,20.00
2019-02-21T11:18:11.093Z,26.87
2019-02-21T11:20:40.017Z,26.93
2019-02-21T11:23:08.862Z,26.47
2019-02-21T11:25:37.560Z,25.70
2019-02-21T11:28:06.743Z,26.03
2019-02-21T11:30:35.462Z,24.87
2019-02-21T11:33:04.724Z,24.30
2019-02-21T11:35:33.604Z,25.03
2019-02-21T11:38:02.316Z,23.70
2019-02-21T11:40:31.577Z,28.30
2019-02-21T11:43:02.691Z,23.33
2019-02-21T11:45:31.976Z,24.63
2019-02-21T11:48:01.078Z,24.83
2019-02-21T11:50:30.353Z,25.27
2019-02-21T11:52:59.556Z,21.00
2019-02-21T11:55:28.586Z,21.80
2019-02-21T11:57:57.498Z,29.10
2019-02-21T12:00:26.659Z,28.87
2019-02-21T12:02:55.513Z,28.67
2019-02-21T12:05:32.189Z,29.57
2019-02-21T12:07:54.919Z,31.53
2019-02-21T12:10:23.743Z,26.63
2019-02-21T12:12:53.196Z,25.50
2019-02-21T12:15:22.125Z,29.80
2019-02-21T12:17:50.868Z,28.90
2019-02-21T12:20:19.843Z,22.13
2019-02-21T12:22:48.546Z,32.00
2019-02-21T12:25:17.494Z,24.57
2019-02-21T12:27:46.160Z,26.83
2019-02-21T12:30:16.600Z,30.90
2019-02-21T12:32:45.507Z,30.60
2019-02-21T12:35:15.114Z,30.33
2019-02-21T12:37:43.897Z,31.07
2019-02-21T12:40:14.842Z,29.30
2019-02-21T12:42:43.795Z,31.70
2019-02-21T12:45:13.981Z,30.70
2019-02-21T12:47:50.841Z,33.80
2019-02-21T12:50:13.655Z,30.23
2019-02-21T12:52:42.632Z,28.70
2019-02-21T12:55:11.537Z,35.57
2019-02-21T12:57:40.723Z,33.73
2019-02-21T13:00:12.172Z,33.50
2019-02-21T13:02:41.041Z,31.07
2019-02-21T13:05:09.934Z,34.50
2019-02-21T13:07:38.928Z,30.60
2019-02-21T13:10:10.022Z,33.23
2019-02-21T13:12:39.414Z,31.57
2019-02-21T13:15:09.247Z,30.13
2019-02-21T13:17:37.858Z,31.97
2019-02-21T13:20:07.376Z,35.13
2019-02-21T13:22:36.330Z,34.87
2019-02-21T13:25:05.897Z,39.13
2019-02-21T13:27:35.262Z,39.97
2019-02-21T13:30:04.561Z,37.43
2019-02-21T13:32:33.704Z,35.40
2019-02-21T13:35:03.105Z,37.33
2019-02-21T13:37:31.957Z,36.53
2019-02-21T13:40:00.976Z,28.10
2019-02-21T13:42:29.922Z,36.03
2019-02-21T13:44:58.523Z,36.50
2019-02-21T13:47:27.396Z,36.20
2019-02-21T13:49:56.041Z,38.47
2019-02-21T13:52:24.756Z,40.50
2019-02-21T13:54:53.578Z,38.43
2019-02-21T13:57:22.725Z,35.20
2019-02-21T13:59:51.774Z,45.80
2019-02-21T14:02:20.481Z,41.20
2019-02-21T14:04:49.862Z,47.87
2019-02-21T14:07:18.761Z,37.87
2019-02-21T14:09:47.646Z,50.07
2019-02-21T14:12:16.629Z,48.00
2019-02-21T14:14:45.747Z,40.13
2019-02-21T14:17:15.208Z,44.73
2019-02-21T14:19:44.345Z,43.33
2019-02-21T14:22:13.490Z,47.23
2019-02-21T14:24:42.379Z,45.87
2019-02-21T14:27:11.319Z,34.33
2019-02-21T14:29:40.036Z,45.70
2019-02-21T14:32:08.998Z,48.53
2019-02-21T14:34:37.723Z,45.93
2019-02-21T14:37:06.566Z,45.13
2019-02-21T14:39:35.524Z,44.80
2019-02-21T14:42:04.660Z,45.03
2019-02-21T14:44:34.039Z,46.03
2019-02-21T14:47:02.971Z,41.73
2019-02-21T14:49:32.088Z,32.80
2019-02-21T14:52:01.987Z,41.93
2019-02-21T14:54:31.024Z,38.97
2019-02-21T14:56:59.888Z,36.87
2019-02-21T14:59:28.755Z,37.33
2019-02-21T15:01:57.620Z,34.27
2019-02-21T15:04:26.776Z,35.97
2019-02-21T15:06:55.916Z,31.67
2019-02-21T15:09:24.860Z,36.97
2019-02-21T15:11:53.771Z,39.20
2019-02-21T15:14:23.225Z,39.53
2019-02-21T15:16:51.893Z,38.47
2019-02-21T15:19:20.521Z,39.17
2019-02-21T15:21:49.161Z,43.27
2019-02-21T15:24:17.831Z,36.67
2019-02-21T15:26:46.963Z,37.93
2019-02-21T15:29:15.810Z,37.40
2019-02-21T15:31:44.688Z,33.50
2019-02-21T15:34:13.600Z,31.97
2019-02-21T15:36:42.780Z,40.67
2019-02-21T15:39:11.526Z,33.27
2019-02-21T15:41:40.495Z,36.87
2019-02-21T15:44:09.608Z,35.67
2019-02-21T15:46:38.502Z,38.90
2019-02-21T15:49:07.201Z,37.57
2019-02-21T15:51:40.734Z,38.43
2019-02-21T15:54:12.337Z,39.57
2019-02-21T15:56:40.788Z,35.97
2019-02-21T15:59:09.522Z,30.23
2019-02-21T16:01:47.010Z,35.77
2019-02-21T16:04:08.815Z,37.17
2019-02-21T16:06:39.308Z,28.03
2019-02-21T16:09:16.300Z,34.43
2019-02-21T16:11:40.002Z,32.13
2019-02-21T16:14:09.794Z,31.67
2019-02-21T16:16:38.427Z,34.17
2019-02-21T16:19:07.236Z,29.80
2019-02-21T16:21:36.385Z,30.47
2019-02-21T16:24:05.635Z,33.83
2019-02-21T16:26:36.195Z,27.77
2019-02-21T16:29:04.849Z,31.17
2019-02-21T16:31:33.789Z,26.93
2019-02-21T16:34:02.708Z,26.70
2019-02-21T16:36:31.621Z,28.50
2019-02-21T16:39:01.318Z,28.47
2019-02-21T16:41:36.379Z,28.27
2019-02-21T16:44:01.216Z,29.10
2019-02-21T16:46:29.840Z,29.67
2019-02-21T16:48:58.746Z,25.37
2019-02-21T16:51:27.449Z,24.60
2019-02-21T16:53:56.574Z,27.17
2019-02-21T16:56:26.646Z,27.33
2019-02-21T16:58:55.432Z,25.63
2019-02-21T17:01:24.328Z,28.23
2019-02-21T17:03:52.964Z,26.83
2019-02-21T17:06:21.896Z,23.03
2019-02-21T17:08:50.539Z,24.73
2019-02-21T17:11:19.533Z,23.67
2019-02-21T17:13:52.797Z,26.03
2019-02-21T17:16:21.072Z,26.30
2019-02-21T17:18:50.043Z,28.07
2019-02-21T17:21:20.996Z,27.27
2019-02-21T17:23:49.622Z,26.10
2019-02-21T17:26:18.262Z,26.60
2019-02-21T17:28:49.920Z,27.00
2019-02-21T17:31:18.649Z,27.50
2019-02-21T17:33:47.525Z,27.73
2019-02-21T17:36:16.269Z,27.17
2019-02-21T17:38:45.334Z,26.17
2019-02-21T17:41:14.270Z,25.97
2019-02-21T17:43:43.443Z,25.47
2019-02-21T17:46:12.376Z,25.57
2019-02-21T17:48:41.363Z,21.50
2019-02-21T17:51:10.310Z,23.57
2019-02-21T17:53:39.284Z,24.77
2019-02-21T17:56:08.280Z,22.87
2019-02-21T17:58:37.307Z,22.50
2019-02-21T18:01:08.812Z,20.50
2019-02-21T18:03:37.657Z,18.63
2019-02-21T18:06:06.415Z,20.13
2019-02-21T18:08:35.342Z,19.67
2019-02-21T18:11:04.092Z,18.47
2019-02-21T18:13:32.857Z,16.37
2019-02-21T18:16:01.512Z,18.87
2019-02-21T18:18:30.439Z,17.53
2019-02-21T18:20:59.189Z,18.70
2019-02-21T18:23:27.863Z,12.13
2019-02-21T18:26:04.448Z,14.23
2019-02-21T18:28:33.523Z,18.17
2019-02-21T18:31:02.287Z,19.17
2019-02-21T18:33:31.203Z,17.97
2019-02-21T18:35:59.877Z,17.87
2019-02-21T18:38:28.754Z,17.87
2019-02-21T18:40:57.493Z,18.87
2019-02-21T18:43:26.980Z,17.57
2019-02-21T18:45:57.543Z,18.53
2019-02-21T18:48:26.517Z,19.97
2019-02-21T18:50:55.280Z,19.27
2019-02-21T18:53:23.964Z,18.23
2019-02-21T18:55:52.879Z,20.03
2019-02-21T18:58:22.593Z,15.60
2019-02-21T19:00:51.509Z,21.80
2019-02-21T19:03:24.831Z,19.60
2019-02-21T19:05:54.026Z,19.37
2019-02-21T19:08:22.691Z,20.17
2019-02-21T19:10:52.069Z,18.57
2019-02-21T19:13:20.716Z,19.50
2019-02-21T19:15:49.926Z,21.57
2019-02-21T19:18:18.856Z,17.30
2019-02-21T19:20:49.870Z,19.27
2019-02-21T19:23:18.897Z,19.57
2019-02-21T19:25:49.166Z,22.17
2019-02-21T19:28:18.845Z,22.13
2019-02-21T19:30:54.436Z,21.70
2019-02-21T19:33:23.420Z,20.90
2019-02-21T19:35:52.908Z,22.23
2019-02-21T19:38:22.627Z,21.63
2019-02-21T19:40:51.521Z,22.97
2019-02-21T19:43:20.492Z,24.17
2019-02-21T19:45:50.533Z,23.13
2019-02-21T19:48:19.267Z,22.37
2019-02-21T19:50:47.986Z,22.47
2019-02-21T19:53:17.014Z,19.80
2019-02-21T19:55:46.266Z,20.80
2019-02-21T19:58:15.788Z,23.60
2019-02-21T20:00:44.832Z,25.33
2019-02-21T20:03:13.906Z,22.77
2019-02-21T20:05:42.930Z,23.67
2019-02-21T20:08:20.986Z,24.00
2019-02-21T20:10:43.249Z,24.90
2019-02-21T20:13:13.411Z,23.00
2019-02-21T20:15:42.182Z,25.63
2019-02-21T20:18:10.887Z,26.47
2019-02-21T20:20:40.195Z,24.83
2019-02-21T20:23:11.032Z,26.13
2019-02-21T20:25:39.978Z,24.67
2019-02-21T20:28:08.958Z,27.10
2019-02-21T20:30:37.969Z,27.87
2019-02-21T20:33:06.651Z,26.57
2019-02-21T20:35:35.591Z,24.33
2019-02-21T20:38:04.735Z,23.97
2019-02-21T20:40:33.620Z,21.93
2019-02-21T20:43:02.437Z,21.00
2019-02-21T20:45:31.673Z,21.50
2019-02-21T20:48:01.115Z,21.80
2019-02-21T20:50:29.743Z,22.67
2019-02-21T20:52:58.699Z,25.27
2019-02-21T20:55:27.345Z,23.23
2019-02-21T20:57:56.502Z,23.10
2019-02-21T21:00:25.792Z,19.20
2019-02-21T21:02:54.446Z,23.20
2019-02-21T21:05:23.447Z,24.70
2019-02-21T21:07:52.648Z,24.87
2019-02-21T21:10:21.626Z,26.67
2019-02-21T21:12:50.785Z,26.20
2019-02-21T21:15:19.525Z,28.97
2019-02-21T21:17:48.459Z,26.77
2019-02-21T21:20:17.665Z,29.07
2019-02-21T21:22:46.562Z,25.57
2019-02-21T21:25:15.422Z,31.03
2019-02-21T21:27:44.856Z,30.00
2019-02-21T21:30:14.540Z,28.47
2019-02-21T21:32:43.237Z,27.90
2019-02-21T21:35:12.180Z,28.83
2019-02-21T21:37:41.183Z,28.27
2019-02-21T21:40:11.801Z,24.47
2019-02-21T21:42:41.378Z,23.10
2019-02-21T21:45:12.582Z,24.50
2019-02-21T21:47:41.697Z,24.40
2019-02-21T21:50:11.357Z,23.63
2019-02-21T21:52:40.278Z,23.37
2019-02-21T21:55:08.976Z,22.53
2019-02-21T21:57:37.918Z,25.67
2019-02-21T22:00:09.127Z,24.80
2019-02-21T22:02:37.765Z,27.17
2019-02-21T22:05:07.039Z,29.23
2019-02-21T22:07:35.687Z,30.93
2019-02-21T22:10:05.161Z,32.83
2019-02-21T22:12:34.315Z,33.57
2019-02-21T22:15:03.254Z,32.00
2019-02-21T22:17:31.885Z,35.60
2019-02-21T22:20:00.502Z,33.03
2019-02-21T22:22:29.442Z,34.53
2019-02-21T22:24:58.313Z,33.50
2019-02-21T22:27:27.228Z,35.67
2019-02-21T22:29:56.397Z,35.67
2019-02-21T22:32:25.279Z,35.80
2019-02-21T22:34:53.930Z,33.70
2019-02-21T22:37:22.579Z,33.90
2019-02-21T22:39:52.186Z,36.40
2019-02-21T22:42:20.815Z,37.43
2019-02-21T22:44:49.734Z,36.20
2019-02-21T22:47:18.390Z,38.43
2019-02-21T22:49:47.550Z,37.87
2019-02-21T22:52:17.098Z,38.03
2019-02-21T22:54:46.516Z,38.07
2019-02-21T22:57:15.654Z,35.47
2019-02-21T22:59:44.814Z,37.23
2019-02-21T23:02:13.967Z,38.13
2019-02-21T23:04:48.374Z,38.80
2019-02-21T23:07:53.430Z,41.00
2019-02-21T23:10:22.404Z,39.07
2019-02-21T23:12:51.286Z,40.13
2019-02-21T23:15:20.509Z,40.47
2019-02-21T23:17:49.714Z,41.23
2019-02-21T23:20:18.667Z,39.90
2019-02-21T23:22:48.062Z,43.43
2019-02-21T23:25:16.974Z,43.63
2019-02-21T23:27:45.868Z,42.57
2019-02-21T23:30:14.919Z,41.37
2019-02-21T23:32:44.044Z,41.57
2019-02-21T23:35:18.103Z,38.10
2019-02-21T23:37:47.073Z,35.07
2019-02-21T23:40:16.262Z,32.43
2019-02-21T23:42:44.923Z,30.93
2019-02-21T23:45:13.890Z,30.00
2019-02-21T23:47:49.819Z,27.83
2019-02-21T23:50:12.988Z,27.47
2019-02-21T23:52:42.246Z,25.33
2019-02-21T23:55:10.919Z,22.57
2019-02-21T23:57:39.893Z,23.00
